Time;durP1;ratioP1;P1;durP2;ratioP2;P2;SDS_P1;SDS_P2;PMS_P1;PMS_P2;Temp;Humidity;BMP_temperature;BMP_pressure;BME280_temperature;BME280_humidity;BME280_pressure;Samples;Min_cycle;Max_cycle;Signal;HPM_P1;HPM_P2
2021/03/05 00:01:45;;;;;;;57.98;34.67;;;;;;;4.16;79.91;96305.59;1765845;80;21104;-82
2021/03/05 00:04:12;;;;;;;55.78;35.40;;;;;;;4.13;79.90;96304.25;1754494;80;21184;-81
2021/03/05 00:06:39;;;;;;;55.25;33.80;;;;;;;4.12;79.89;96314.47;1777142;80;21457;-82
2021/03/05 00:09:06;;;;;;;59.77;37.48;;;;;;;4.08;79.81;96316.00;1765845;80;21144;-82
2021/03/05 00:11:33;;;;;;;53.35;34.33;;;;;;;4.06;79.87;96312.80;1768147;80;21559;-82
2021/03/05 00:14:00;;;;;;;58.90;35.38;;;;;;;4.08;79.89;96318.63;1765413;80;21670;-82
2021/03/05 00:16:27;;;;;;;53.78;33.58;;;;;;;4.05;79.76;96309.91;1767272;80;21534;-82
2021/03/05 00:18:54;;;;;;;56.63;33.55;;;;;;;4.01;79.73;96312.75;1764787;81;21548;-82
2021/03/05 00:21:21;;;;;;;60.08;35.68;;;;;;;4.03;79.80;96307.27;1769059;80;21687;-82
2021/03/05 00:23:48;;;;;;;53.40;33.50;;;;;;;4.07;79.90;96309.14;1771098;80;21130;-82
2021/03/05 00:26:15;;;;;;;56.80;34.20;;;;;;;4.15;79.98;96317.91;1783834;80;21259;-82
2021/03/05 00:28:42;;;;;;;58.17;37.45;;;;;;;4.17;79.80;96315.05;1771546;80;21138;-82
2021/03/05 00:31:09;;;;;;;63.87;37.50;;;;;;;4.12;79.69;96311.84;1782885;80;21110;-82
2021/03/05 00:33:36;;;;;;;61.02;35.78;;;;;;;4.11;79.68;96310.78;1767623;80;21492;-82
2021/03/05 00:36:04;;;;;;;54.38;32.03;;;;;;;4.03;79.64;96319.86;1770651;80;21466;-82
2021/03/05 00:38:31;;;;;;;51.23;31.77;;;;;;;4.02;79.73;96310.41;1779446;80;21485;-82
2021/03/05 00:40:58;;;;;;;53.83;32.28;;;;;;;3.95;79.64;96306.39;1764153;80;21504;-82
2021/03/05 00:43:25;;;;;;;54.48;32.75;;;;;;;3.88;79.73;96315.21;1776912;80;21093;-82
2021/03/05 00:45:52;;;;;;;58.40;34.10;;;;;;;3.88;79.86;96308.66;1767511;80;21508;-82
2021/03/05 00:48:20;;;;;;;62.93;36.73;;;;;;;3.85;79.87;96308.36;1772080;80;21129;-82
2021/03/05 00:50:47;;;;;;;54.73;35.25;;;;;;;3.79;79.64;96309.30;1778857;80;21130;-82
2021/03/05 00:53:15;;;;;;;64.07;35.90;;;;;;;3.69;79.40;96309.19;1777426;80;21505;-82
2021/03/05 00:55:42;;;;;;;60.50;36.08;;;;;;;3.58;79.30;96303.80;1777186;80;21110;-81
2021/03/05 00:58:09;;;;;;;58.40;35.13;;;;;;;3.53;79.31;96310.30;1772239;80;21133;-82
2021/03/05 01:00:37;;;;;;;60.25;34.60;;;;;;;3.47;79.34;96303.38;1771944;80;21153;-82
2021/03/05 01:03:05;;;;;;;55.48;33.05;;;;;;;3.41;79.35;96303.03;1760402;80;21505;-82
2021/03/05 01:05:32;;;;;;;48.65;30.17;;;;;;;3.40;79.42;96298.04;1777305;80;21156;-82
2021/03/05 01:08:00;;;;;;;56.48;33.42;;;;;;;3.36;79.28;96299.02;1748890;80;21120;-82
2021/03/05 01:10:27;;;;;;;63.52;36.17;;;;;;;3.26;79.08;96300.19;1760305;80;21489;-82
2021/03/05 01:12:54;;;;;;;55.38;35.50;;;;;;;3.24;79.08;96293.09;1756733;80;21124;-82
2021/03/05 01:15:21;;;;;;;61.85;38.20;;;;;;;3.21;79.00;96290.92;1771815;80;21549;-82
2021/03/05 01:17:48;;;;;;;66.20;39.38;;;;;;;3.15;78.81;96286.14;1757437;80;21149;-82
2021/03/05 01:20:19;;;;;;;54.58;33.50;;;;;;;3.11;78.72;96284.24;1763195;80;21122;-82
2021/03/05 01:22:46;;;;;;;60.63;34.90;;;;;;;3.07;78.65;96285.73;1763596;80;21204;-82
2021/03/05 01:25:21;;;;;;;59.58;35.23;;;;;;;3.02;78.64;96292.20;1777931;80;21516;-82
2021/03/05 01:27:49;;;;;;;59.18;34.35;;;;;;;2.93;78.58;96291.80;1786489;80;21074;-81
2021/03/05 01:30:18;;;;;;;53.42;32.93;;;;;;;2.90;78.65;96298.82;1785854;80;21116;-82
2021/03/05 01:32:45;;;;;;;58.87;35.70;;;;;;;2.74;78.81;96296.47;1768843;80;21157;-81
2021/03/05 01:35:25;;;;;;;55.03;31.97;;;;;;;2.56;79.00;96294.06;1769846;80;21526;-81
2021/03/05 01:37:52;;;;;;;54.63;33.70;;;;;;;2.44;79.23;96288.09;1764100;80;21511;-81
2021/03/05 01:40:36;;;;;;;55.48;31.55;;;;;;;2.36;79.45;96282.70;1764785;80;21102;-82
2021/03/05 01:43:10;;;;;;;51.45;31.35;;;;;;;2.41;79.62;96292.48;1780552;80;21138;-82
2021/03/05 01:45:38;;;;;;;46.45;30.05;;;;;;;2.45;79.76;96290.98;1765572;80;21113;-82
2021/03/05 01:48:10;;;;;;;42.23;26.68;;;;;;;2.57;79.84;96297.75;1770240;80;21121;-81
2021/03/05 01:51:03;;;;;;;38.63;25.65;;;;;;;2.63;79.76;96299.41;1759371;80;21526;-82
2021/03/05 01:53:31;;;;;;;34.60;22.70;;;;;;;2.63;79.60;96300.72;1757440;80;21254;-81
2021/03/05 01:56:00;;;;;;;38.45;23.47;;;;;;;2.57;79.46;96300.37;1760420;80;21173;-81
2021/03/05 01:58:28;;;;;;;39.20;23.45;;;;;;;2.58;79.42;96301.16;1767443;80;21120;-81
2021/03/05 02:01:03;;;;;;;37.75;23.77;;;;;;;2.56;79.42;96284.91;1763682;80;21119;-81
2021/03/05 02:03:32;;;;;;;34.53;21.23;;;;;;;2.55;79.35;96295.89;1755303;80;21122;-81
2021/03/05 02:06:00;;;;;;;31.48;21.05;;;;;;;2.55;79.40;96304.25;1765712;79;21204;-81
2021/03/05 02:08:27;;;;;;;33.42;21.37;;;;;;;2.54;79.41;96299.53;1766789;80;21093;-82
2021/03/05 02:10:54;;;;;;;34.75;21.75;;;;;;;2.56;79.41;96299.30;1763931;80;21117;-81
2021/03/05 02:13:22;;;;;;;28.30;18.42;;;;;;;2.54;79.37;96298.74;1768948;80;21161;-81
2021/03/05 02:15:51;;;;;;;39.18;23.07;;;;;;;2.44;79.45;96288.09;1768559;80;21136;-81
2021/03/05 02:19:00;;;;;;;37.20;20.92;;;;;;;2.23;79.33;96303.38;1765757;80;21146;-81
2021/03/05 02:22:06;;;;;;;41.45;22.15;;;;;;;2.17;79.49;96303.53;1749900;80;22079;-82
2021/03/05 02:25:14;;;;;;;39.55;22.98;;;;;;;2.11;79.59;96314.90;1759515;80;21114;-82
2021/03/05 02:28:22;;;;;;;42.17;22.93;;;;;;;2.08;79.60;96311.73;1783558;80;21528;-81
2021/03/05 02:31:27;;;;;;;48.63;23.20;;;;;;;2.05;79.65;96313.50;1785738;80;21505;-81
2021/03/05 02:34:18;;;;;;;44.73;22.42;;;;;;;2.02;79.66;96324.94;1760681;80;21471;-82
2021/03/05 02:37:11;;;;;;;40.73;20.82;;;;;;;1.95;79.64;96321.13;1756151;80;21528;-82
2021/03/05 02:39:49;;;;;;;43.48;23.20;;;;;;;1.90;79.68;96316.33;1770228;80;21631;-82
2021/03/05 02:42:50;;;;;;;43.20;23.70;;;;;;;1.85;79.80;96319.64;1769592;80;21128;-82
2021/03/05 02:45:21;;;;;;;44.93;24.53;;;;;;;1.67;79.83;96310.09;1769619;80;21233;-82
2021/03/05 02:47:52;;;;;;;42.85;22.52;;;;;;;1.67;79.83;96310.09;1777594;80;22237;-82
2021/03/05 02:50:24;;;;;;;48.33;23.73;;;;;;;1.66;80.06;96319.47;1755101;81;21121;-82
2021/03/05 02:52:55;;;;;;;45.80;22.42;;;;;;;1.68;80.22;96314.30;1766634;80;21483;-82
2021/03/05 02:55:24;;;;;;;36.05;19.82;;;;;;;1.74;80.26;96309.98;1730215;80;21138;-82
2021/03/05 02:57:56;;;;;;;41.60;22.75;;;;;;;1.69;80.44;96306.77;1772728;80;21113;-82
2021/03/05 03:00:26;;;;;;;47.05;24.55;;;;;;;1.55;80.55;96306.72;1757672;80;21113;-82
2021/03/05 03:02:56;;;;;;;42.80;22.98;;;;;;;1.51;80.75;96308.18;1754140;80;21220;-82
2021/03/05 03:05:27;;;;;;;36.23;21.82;;;;;;;1.54;80.78;96310.33;1762223;79;21093;-82
2021/03/05 03:07:57;;;;;;;37.38;22.00;;;;;;;1.58;80.81;96310.17;1767988;80;21112;-82
2021/03/05 03:10:28;;;;;;;35.77;21.07;;;;;;;1.61;80.76;96318.06;1765538;80;21164;-82
2021/03/05 03:13:00;;;;;;;33.55;19.32;;;;;;;1.61;80.77;96318.06;1764339;80;21159;-82
2021/03/05 03:15:30;;;;;;;37.08;19.40;;;;;;;1.60;80.77;96318.58;1768200;80;21121;-82
2021/03/05 03:18:02;;;;;;;31.90;17.90;;;;;;;1.62;80.82;96324.36;1772242;80;21468;-82
2021/03/05 03:20:31;;;;;;;29.18;17.17;;;;;;;1.65;80.81;96318.67;1771101;80;21156;-82
2021/03/05 03:22:58;;;;;;;29.00;16.60;;;;;;;1.67;80.66;96323.16;1768278;80;21203;-82
2021/03/05 03:25:26;;;;;;;28.12;16.17;;;;;;;1.68;80.65;96324.75;1777456;80;21293;-82
2021/03/05 03:27:55;;;;;;;32.63;16.50;;;;;;;1.69;80.56;96319.83;1768231;80;21116;-82
2021/03/05 03:30:23;;;;;;;30.90;18.20;;;;;;;1.70;80.42;96319.31;1764381;81;21101;-82
2021/03/05 03:32:53;;;;;;;32.73;17.73;;;;;;;1.67;80.33;96319.75;1775478;80;21146;-82
2021/03/05 03:35:20;;;;;;;30.12;18.07;;;;;;;1.68;80.35;96323.95;1778617;80;21082;-82
2021/03/05 03:37:49;;;;;;;32.60;18.20;;;;;;;1.66;80.29;96328.62;1781376;80;21137;-82
2021/03/05 03:40:21;;;;;;;29.12;17.73;;;;;;;1.64;80.23;96321.01;1764300;80;21164;-82
2021/03/05 03:42:51;;;;;;;31.02;17.70;;;;;;;1.65;80.20;96312.66;1764177;80;21144;-82
2021/03/05 03:45:24;;;;;;;30.57;17.90;;;;;;;1.61;80.12;96300.56;1774156;80;21141;-82
2021/03/05 03:47:53;;;;;;;36.23;18.52;;;;;;;1.57;80.11;96296.04;1770387;80;21116;-82
2021/03/05 03:50:46;;;;;;;31.90;18.45;;;;;;;1.60;80.18;96308.12;1765514;80;21143;-82
2021/03/05 03:53:18;;;;;;;33.33;19.30;;;;;;;1.64;80.30;96316.30;1770115;80;21461;-81
2021/03/05 03:58:41;;;;;;;31.12;18.98;;;;;;;1.74;80.11;96309.47;1781914;79;23438;-80
2021/03/05 04:01:12;;;;;;;31.45;17.37;;;;;;;1.68;80.04;96313.50;1757440;79;21146;-81
2021/03/05 04:03:41;;;;;;;;;;;;;;;1.66;80.04;96316.34;1747351;81;21480;-80
2021/03/05 04:06:11;;;;;;;35.48;18.57;;;;;;;1.63;79.93;96314.70;1726988;81;20117;-81
2021/03/05 04:08:43;;;;;;;30.80;18.23;;;;;;;1.60;80.08;96315.97;1719918;81;21256;-81
2021/03/05 04:11:10;;;;;;;30.70;18.35;;;;;;;1.62;80.05;96318.34;1751643;80;21206;-80
2021/03/05 04:13:40;;;;;;;31.82;17.60;;;;;;;1.62;80.00;96323.05;1761783;81;21310;-81
2021/03/05 04:16:09;;;;;;;32.73;17.27;;;;;;;1.64;79.95;96319.70;1759958;80;21222;-80
2021/03/05 04:18:39;;;;;;;30.27;16.80;;;;;;;1.63;79.88;96322.03;1757856;81;21102;-80
2021/03/05 04:21:14;;;;;;;;;;;;;;;1.60;79.83;96317.27;1757371;80;21680;-81
2021/03/05 04:23:41;;;;;;;29.23;15.20;;;;;;;1.63;79.95;96323.85;1757051;81;20292;-81
2021/03/05 04:26:08;;;;;;;27.10;15.48;;;;;;;1.61;79.89;96334.53;1744034;81;21511;-81
2021/03/05 04:28:35;;;;;;;28.95;16.30;;;;;;;1.61;79.85;96325.39;1753300;81;21263;-81
2021/03/05 04:31:03;;;;;;;30.23;17.17;;;;;;;1.63;79.96;96328.56;1745801;81;21187;-81
2021/03/05 04:33:31;;;;;;;28.70;16.10;;;;;;;1.68;79.97;96328.66;1759155;81;21130;-81
2021/03/05 04:35:58;;;;;;;38.08;16.77;;;;;;;1.67;79.72;96331.51;1759813;81;21127;-81
2021/03/05 04:38:25;;;;;;;33.42;17.55;;;;;;;1.59;79.59;96335.79;1747055;81;21144;-81
2021/03/05 04:40:52;;;;;;;29.35;15.65;;;;;;;1.63;79.74;96341.63;1759019;81;21265;-81
2021/03/05 04:43:20;;;;;;;28.38;16.67;;;;;;;1.63;79.63;96345.55;1756217;80;21613;-81
2021/03/05 04:45:46;;;;;;;28.55;15.90;;;;;;;1.69;79.78;96345.96;1757034;81;21275;-81
2021/03/05 04:48:13;;;;;;;26.85;16.05;;;;;;;1.74;79.73;96347.37;1730549;81;21120;-81
2021/03/05 04:50:40;;;;;;;33.10;17.00;;;;;;;1.72;79.59;96341.58;1745351;80;21117;-81
2021/03/05 04:53:10;;;;;;;26.87;16.20;;;;;;;1.78;79.62;96340.66;1756872;81;21270;-81
2021/03/05 04:55:40;;;;;;;28.40;16.87;;;;;;;1.77;79.46;96339.06;1753473;81;21249;-81
2021/03/05 04:58:07;;;;;;;28.87;16.83;;;;;;;1.81;79.53;96347.23;1758702;81;21111;-81
2021/03/05 05:00:34;;;;;;;28.67;16.48;;;;;;;1.84;79.46;96348.62;1761517;81;21233;-81
2021/03/05 05:03:01;;;;;;;28.60;15.98;;;;;;;1.84;79.42;96356.45;1760400;80;21188;-81
2021/03/05 05:05:29;;;;;;;25.90;16.10;;;;;;;1.84;79.35;96364.30;1750365;81;21088;-81
2021/03/05 05:07:57;;;;;;;34.13;17.12;;;;;;;1.85;79.35;96362.77;1761599;81;21132;-81
2021/03/05 05:10:26;;;;;;;27.62;16.40;;;;;;;1.88;79.28;96365.42;1755928;81;21499;-81
2021/03/05 05:12:53;;;;;;;28.77;16.50;;;;;;;1.85;79.14;96366.69;1753407;81;21479;-81
2021/03/05 05:15:20;;;;;;;28.35;14.98;;;;;;;1.83;79.11;96369.22;1765186;81;21140;-81
2021/03/05 05:17:47;;;;;;;30.80;17.70;;;;;;;1.86;79.23;96372.19;1764008;81;21508;-81
2021/03/05 05:20:15;;;;;;;31.95;18.10;;;;;;;1.87;79.11;96369.06;1763926;80;21158;-81
2021/03/05 05:22:42;;;;;;;26.60;15.15;;;;;;;1.87;79.04;96374.29;1762475;80;21178;-81
2021/03/05 05:25:11;;;;;;;33.23;17.32;;;;;;;1.86;78.98;96374.02;1758278;81;21103;-81
2021/03/05 05:27:38;;;;;;;30.20;17.27;;;;;;;1.74;78.77;96372.19;1759309;81;21116;-81
2021/03/05 05:30:06;;;;;;;31.05;16.87;;;;;;;1.65;78.82;96377.98;1763090;81;21111;-81
2021/03/05 05:32:34;;;;;;;27.15;15.18;;;;;;;1.55;78.92;96372.03;1760785;80;21152;-81
2021/03/05 05:35:01;;;;;;;26.25;14.73;;;;;;;1.45;79.00;96377.02;1765655;81;21163;-81
2021/03/05 05:37:28;;;;;;;27.37;15.53;;;;;;;1.29;79.22;96377.67;1747233;81;21154;-81
2021/03/05 05:39:55;;;;;;;26.80;15.48;;;;;;;1.09;79.54;96372.23;1763277;81;21119;-81
2021/03/05 05:42:22;;;;;;;30.48;17.23;;;;;;;0.96;79.96;96367.71;1763462;81;21495;-81
2021/03/05 05:44:50;;;;;;;25.30;14.65;;;;;;;0.87;80.05;96368.56;1758646;81;21129;-81
2021/03/05 05:47:18;;;;;;;19.02;11.75;;;;;;;0.93;80.23;96370.77;1765223;81;21131;-81
2021/03/05 05:49:46;;;;;;;20.75;11.90;;;;;;;0.98;80.30;96374.30;1756216;81;21085;-81
2021/03/05 05:52:24;;;;;;;19.32;12.40;;;;;;;1.04;80.27;96376.54;1754381;80;21256;-81
2021/03/05 05:54:54;;;;;;;19.98;11.97;;;;;;;1.09;80.16;96377.96;1744137;81;21115;-80
2021/03/05 05:57:24;;;;;;;19.23;11.05;;;;;;;1.14;80.02;96375.50;1763618;81;21557;-81
2021/03/05 05:59:52;;;;;;;21.20;11.70;;;;;;;1.16;79.88;96380.77;1754585;81;21153;-81
2021/03/05 06:02:21;;;;;;;20.10;11.93;;;;;;;1.16;79.74;96383.89;1741899;80;21098;-81
2021/03/05 06:04:55;;;;;;;18.00;10.75;;;;;;;1.12;79.69;96381.42;1753705;81;21157;-81
2021/03/05 06:07:25;;;;;;;21.73;12.37;;;;;;;1.11;79.73;96387.16;1741409;81;21103;-81
2021/03/05 06:09:53;;;;;;;12.88;8.25;;;;;;;1.14;80.06;96390.65;1757942;81;21132;-81
2021/03/05 06:12:21;;;;;;;20.20;12.03;;;;;;;1.17;80.21;96392.02;1758286;80;21162;-82
2021/03/05 06:14:48;;;;;;;18.65;11.95;;;;;;;1.16;80.00;96396.44;1754639;81;21143;-81
2021/03/05 06:17:16;;;;;;;17.45;10.95;;;;;;;1.23;79.97;96399.45;1751297;81;21502;-82
2021/03/05 06:19:43;;;;;;;21.77;10.88;;;;;;;1.24;79.74;96392.69;1735317;81;21137;-82
2021/03/05 06:22:23;;;;;;;20.05;11.73;;;;;;;1.23;79.62;96398.14;1746879;81;21132;-81
2021/03/05 06:24:50;;;;;;;21.60;12.45;;;;;;;1.16;79.58;96396.44;1745268;81;21193;-82
2021/03/05 06:27:21;;;;;;;20.08;12.05;;;;;;;1.00;79.65;96389.25;1744092;81;21149;-82
2021/03/05 06:29:51;;;;;;;20.97;11.85;;;;;;;0.83;79.85;96398.70;1750141;81;21124;-81
2021/03/05 06:32:20;;;;;;;20.50;13.32;;;;;;;0.72;79.99;96403.39;1754900;81;21136;-82
2021/03/05 06:34:53;;;;;;;22.90;13.65;;;;;;;0.63;80.30;96407.31;1762530;81;21532;-82
2021/03/05 06:37:25;;;;;;;22.98;12.68;;;;;;;0.53;80.66;96416.95;1744843;81;21453;-82
2021/03/05 06:40:06;;;;;;;20.10;11.95;;;;;;;0.47;80.89;96416.02;1759307;81;21136;-82
2021/03/05 06:42:56;;;;;;;17.87;11.22;;;;;;;0.37;81.50;96418.34;1756300;81;21477;-82
2021/03/05 06:45:36;;;;;;;20.77;12.55;;;;;;;0.24;82.05;96417.19;1760346;81;21139;-81
2021/03/05 06:48:06;;;;;;;21.97;12.63;;;;;;;0.14;82.47;96427.31;1736255;81;21181;-81
2021/03/05 06:50:38;;;;;;;24.23;13.45;;;;;;;0.14;82.85;96428.61;1752799;81;21432;-81
2021/03/05 06:53:24;;;;;;;19.02;12.50;;;;;;;0.19;82.93;96433.99;1744554;81;21111;-81
2021/03/05 06:55:53;;;;;;;22.95;14.00;;;;;;;0.23;82.98;96432.53;1756192;81;21469;-82
2021/03/05 06:58:21;;;;;;;24.65;15.40;;;;;;;0.19;83.18;96437.91;1749622;81;21149;-82
2021/03/05 07:00:48;;;;;;;29.07;17.12;;;;;;;0.22;83.23;96434.86;1757003;79;21157;-82
2021/03/05 07:03:23;;;;;;;27.85;14.87;;;;;;;0.24;83.59;96431.52;1753002;81;21571;-82
2021/03/05 07:05:54;;;;;;;27.50;15.45;;;;;;;0.25;83.80;96432.61;1750138;81;21513;-82
2021/03/05 07:08:41;;;;;;;31.82;18.75;;;;;;;0.26;84.10;96442.02;1750104;81;21506;-82
2021/03/05 07:11:12;;;;;;;25.97;15.90;;;;;;;0.23;83.83;96449.48;1744445;80;21210;-82
2021/03/05 07:13:52;;;;;;;29.10;17.40;;;;;;;0.33;83.88;96445.88;1742917;81;21130;-82
2021/03/05 07:16:20;;;;;;;25.70;15.23;;;;;;;0.33;83.95;96458.11;1759332;81;21132;-82
2021/03/05 07:18:47;;;;;;;23.73;15.08;;;;;;;0.31;84.01;96462.24;1732875;81;21492;-82
2021/03/05 07:21:20;;;;;;;26.20;14.53;;;;;;;0.25;84.05;96459.98;1762198;81;21158;-82
2021/03/05 07:23:49;;;;;;;23.45;15.23;;;;;;;0.26;84.43;96463.38;1758232;81;21124;-82
2021/03/05 07:26:18;;;;;;;26.65;15.23;;;;;;;0.31;84.56;96466.16;1751641;81;21496;-81
2021/03/05 07:28:51;;;;;;;25.57;14.87;;;;;;;0.39;84.55;96462.45;1748058;81;21513;-82
2021/03/05 07:31:22;;;;;;;21.90;14.53;;;;;;;0.62;84.54;96471.73;1753875;81;21566;-82
2021/03/05 07:33:58;;;;;;;27.95;17.95;;;;;;;0.78;84.24;96472.44;1748937;81;21131;-82
2021/03/05 07:36:30;;;;;;;24.90;15.00;;;;;;;0.94;84.14;96471.54;1755414;81;21187;-82
2021/03/05 07:39:03;;;;;;;35.98;19.02;;;;;;;1.08;83.93;96472.95;1757014;81;21187;-82
2021/03/05 07:41:34;;;;;;;24.70;15.88;;;;;;;1.21;83.84;96475.91;1749995;81;21119;-82
2021/03/05 07:44:02;;;;;;;21.12;13.78;;;;;;;1.40;83.59;96471.70;1761385;81;21563;-82
2021/03/05 07:46:30;;;;;;;27.95;16.80;;;;;;;1.55;83.27;96474.40;1759972;81;21198;-82
2021/03/05 07:49:00;;;;;;;24.63;14.50;;;;;;;1.67;82.92;96483.06;1768595;81;21165;-82
2021/03/05 07:51:28;;;;;;;28.07;15.85;;;;;;;1.76;82.73;96474.67;1751054;81;21158;-82
2021/03/05 07:53:56;;;;;;;27.82;17.15;;;;;;;1.82;82.31;96476.88;1698465;84;21190;-82
2021/03/05 07:56:49;;;;;;;21.02;13.93;;;;;;;1.88;82.02;96480.44;1688673;83;21174;-82
2021/03/05 07:59:42;;;;;;;19.32;11.38;;;;;;;1.89;81.64;96486.73;1704121;83;21172;-82
2021/03/05 08:02:11;;;;;;;20.02;12.65;;;;;;;1.87;81.43;96491.91;1699309;84;21507;-81
2021/03/05 08:04:56;;;;;;;21.02;13.25;;;;;;;1.94;81.46;96491.28;1692271;83;21184;-81
2021/03/05 08:07:26;;;;;;;19.95;12.65;;;;;;;1.96;81.34;96486.62;1677708;84;21162;-82
2021/03/05 08:09:56;;;;;;;18.95;12.55;;;;;;;2.00;81.18;96495.11;1695833;84;21247;-82
2021/03/05 08:12:36;;;;;;;24.18;13.58;;;;;;;2.03;81.10;96501.70;1699071;83;21134;-82
2021/03/05 08:15:15;;;;;;;17.98;11.35;;;;;;;2.02;81.03;96504.03;1682634;84;21198;-82
2021/03/05 08:17:48;;;;;;;19.62;12.45;;;;;;;2.02;80.91;96508.75;1698213;84;21156;-82
2021/03/05 08:20:22;;;;;;;;;;;;;;;2.02;80.88;96506.64;1702465;84;21531;-82
2021/03/05 08:23:05;;;;;;;21.10;11.75;;;;;;;2.01;80.72;96510.28;1694921;83;20150;-82
2021/03/05 08:25:40;;;;;;;17.37;10.68;;;;;;;2.04;80.79;96515.85;1702448;84;21180;-82
2021/03/05 08:28:13;;;;;;;20.52;12.45;;;;;;;2.12;80.73;96525.19;1688837;84;21127;-82
2021/03/05 08:30:42;;;;;;;18.23;10.75;;;;;;;2.16;80.45;96525.53;1680311;84;21544;-82
2021/03/05 08:33:26;;;;;;;13.17;8.13;;;;;;;2.17;80.21;96527.91;1725852;82;21212;-82
2021/03/05 08:35:54;;;;;;;18.05;11.70;;;;;;;2.12;80.04;96533.04;1729978;82;21492;-82
2021/03/05 08:38:40;;;;;;;18.25;11.85;;;;;;;2.12;79.98;96529.11;1725657;83;21136;-82
2021/03/05 08:41:13;;;;;;;20.32;12.18;;;;;;;2.15;80.04;96529.96;1724024;81;21178;-81
2021/03/05 08:43:40;;;;;;;19.87;11.97;;;;;;;2.21;80.05;96530.35;1700461;84;21170;-81
2021/03/05 08:46:10;;;;;;;22.30;12.30;;;;;;;2.30;79.91;96539.47;1704505;84;21103;-81
2021/03/05 08:48:48;;;;;;;19.12;12.33;;;;;;;2.34;79.74;96537.19;1706505;84;21128;-82
2021/03/05 08:51:21;;;;;;;17.48;10.72;;;;;;;2.33;79.55;96544.23;1746483;79;21171;-82
2021/03/05 08:53:54;;;;;;;16.50;11.28;;;;;;;2.30;79.43;96546.00;1761238;81;21522;-82
2021/03/05 08:56:26;;;;;;;19.02;12.35;;;;;;;2.29;79.35;96540.48;1754601;81;21163;-81
2021/03/05 08:59:04;;;;;;;18.62;12.70;;;;;;;2.26;79.15;96546.18;1758921;81;21141;-82
2021/03/05 09:01:35;;;;;;;20.35;12.75;;;;;;;2.29;79.29;96547.54;1764370;81;21130;-82
2021/03/05 09:04:13;;;;;;;20.82;13.18;;;;;;;2.29;79.23;96547.54;1752673;81;21545;-82
2021/03/05 09:06:54;;;;;;;17.65;10.43;;;;;;;2.28;79.25;96553.28;1757576;81;21118;-82
2021/03/05 09:09:28;;;;;;;17.82;10.93;;;;;;;2.35;79.22;96557.88;1757852;81;21114;-82
2021/03/05 09:12:13;;;;;;;14.83;9.15;;;;;;;2.38;79.16;96560.55;1766588;81;21276;-81
2021/03/05 09:14:48;;;;;;;15.00;10.13;;;;;;;2.46;79.13;96557.60;1767100;81;21118;-80
2021/03/05 09:17:16;;;;;;;16.12;10.13;;;;;;;2.53;79.04;96564.81;1767336;81;21108;-80
2021/03/05 09:19:48;;;;;;;13.98;9.13;;;;;;;2.56;78.90;96567.00;1742555;81;21164;-80
2021/03/05 09:22:20;;;;;;;15.68;9.05;;;;;;;2.56;78.75;96570.13;1701926;83;21147;-80
2021/03/05 09:24:54;;;;;;;15.38;9.05;;;;;;;2.56;78.69;96571.44;1708178;84;21178;-80
2021/03/05 09:27:29;;;;;;;13.72;8.48;;;;;;;2.60;78.63;96574.66;1701365;84;21500;-81
2021/03/05 09:29:59;;;;;;;13.58;8.55;;;;;;;2.67;78.52;96574.53;1689057;84;21137;-81
2021/03/05 09:32:27;;;;;;;18.10;9.10;;;;;;;2.71;78.37;96582.23;1692026;83;21138;-81
2021/03/05 09:35:00;;;;;;;15.50;9.25;;;;;;;2.72;78.24;96578.59;1692995;84;21156;-81
2021/03/05 09:37:32;;;;;;;15.38;8.98;;;;;;;2.75;78.20;96589.11;1708110;84;21265;-81
2021/03/05 09:40:01;;;;;;;16.45;9.63;;;;;;;2.75;78.06;96589.91;1706814;84;22198;-81
2021/03/05 09:42:57;;;;;;;14.10;8.58;;;;;;;2.80;78.13;96588.70;1690536;83;21616;-81
2021/03/05 09:45:46;;;;;;;13.32;8.20;;;;;;;3.00;78.34;96594.10;1694110;84;21158;-83
2021/03/05 09:48:33;;;;;;;15.08;8.78;;;;;;;3.12;77.85;96593.58;1706167;84;21198;-81
2021/03/05 09:51:07;;;;;;;17.00;10.40;;;;;;;3.24;77.89;96592.52;1707636;83;21183;-82
2021/03/05 09:53:38;;;;;;;16.05;10.18;;;;;;;3.33;77.70;96594.77;1732760;82;21120;-82
2021/03/05 09:56:07;;;;;;;;;;;;;;;3.34;77.51;96599.77;1710179;83;21132;-82
2021/03/05 09:58:37;;;;;;;12.63;8.35;;;;;;;3.40;77.44;96595.44;1697585;84;20134;-82
2021/03/05 10:01:06;;;;;;;15.98;9.55;;;;;;;3.06;76.46;96590.03;1695932;84;21179;-82
2021/03/05 10:03:34;;;;;;;19.20;10.38;;;;;;;2.91;77.04;96591.03;1705955;83;21123;-82
2021/03/05 10:06:01;;;;;;;15.38;9.55;;;;;;;2.92;77.29;96605.70;1701198;84;21643;-82
2021/03/05 10:08:31;;;;;;;15.20;9.30;;;;;;;2.83;77.35;96607.10;1702671;84;21143;-82
2021/03/05 10:11:03;;;;;;;9.40;5.33;;;;;;;2.63;77.35;96615.28;1755630;81;21532;-82
2021/03/05 10:13:55;;;;;;;8.80;5.65;;;;;;;2.45;77.64;96618.01;1763619;81;21144;-82
2021/03/05 10:16:34;;;;;;;9.23;5.92;;;;;;;2.30;77.61;96612.70;1763543;81;21132;-81
2021/03/05 10:19:11;;;;;;;10.43;5.35;;;;;;;2.28;77.79;96623.11;1756689;81;21559;-82
2021/03/05 10:21:48;;;;;;;8.35;5.08;;;;;;;2.26;77.73;96619.41;1743312;80;21546;-82
2021/03/05 10:24:19;;;;;;;7.75;4.45;;;;;;;2.37;78.04;96626.97;1753100;81;21499;-81
2021/03/05 10:27:12;;;;;;;8.03;4.75;;;;;;;2.46;77.81;96631.38;1769357;81;21482;-81
2021/03/05 10:29:45;;;;;;;5.72;3.40;;;;;;;2.43;77.92;96640.48;1752097;81;21119;-81
2021/03/05 10:32:33;;;;;;;7.17;3.98;;;;;;;2.45;77.55;96640.25;1757303;81;21158;-81
2021/03/05 10:35:04;;;;;;;6.75;4.37;;;;;;;2.55;77.83;96641.80;1770326;81;21132;-82
2021/03/05 10:37:36;;;;;;;6.37;3.83;;;;;;;2.65;77.81;96646.74;1760250;81;21484;-82
2021/03/05 10:40:08;;;;;;;5.55;4.08;;;;;;;2.70;77.63;96647.39;1744981;81;21159;-82
2021/03/05 10:42:38;;;;;;;7.03;3.87;;;;;;;2.63;77.18;96648.79;1757046;80;21176;-82
2021/03/05 10:45:08;;;;;;;6.78;4.15;;;;;;;2.60;77.08;96651.87;1746511;81;21476;-82
2021/03/05 10:47:35;;;;;;;7.35;4.17;;;;;;;2.57;76.93;96654.15;1756967;81;21151;-82
2021/03/05 10:50:05;;;;;;;6.90;4.35;;;;;;;2.56;76.90;96664.33;1760285;81;22213;-82
2021/03/05 10:52:32;;;;;;;6.58;4.12;;;;;;;2.42;76.60;96668.17;1712293;83;21133;-82
2021/03/05 10:54:59;;;;;;;5.87;3.45;;;;;;;2.34;76.70;96673.20;1709435;82;21143;-82
2021/03/05 10:57:26;;;;;;;7.83;4.15;;;;;;;2.34;76.89;96675.31;1711839;82;21510;-82
2021/03/05 10:59:55;;;;;;;7.62;4.33;;;;;;;2.25;76.52;96683.22;1724544;82;21146;-82
2021/03/05 11:02:22;;;;;;;9.20;4.90;;;;;;;2.01;76.69;96681.02;1721362;81;21158;-82
2021/03/05 11:04:50;;;;;;;6.00;4.22;;;;;;;1.84;76.97;96685.28;1719174;82;21527;-82
2021/03/05 11:07:18;;;;;;;6.47;4.30;;;;;;;1.84;77.25;96687.09;1727627;82;21095;-82
2021/03/05 11:09:47;;;;;;;6.67;4.00;;;;;;;1.84;77.28;96689.70;1710024;84;21186;-82
2021/03/05 11:12:14;;;;;;;6.72;4.35;;;;;;;1.71;76.93;96684.14;1696166;83;21533;-82
2021/03/05 11:14:41;;;;;;;8.00;4.12;;;;;;;1.51;77.58;96693.50;1707560;84;21107;-82
2021/03/05 11:17:08;;;;;;;5.85;4.50;;;;;;;1.41;79.01;96697.14;1715917;84;21099;-82
2021/03/05 11:19:36;;;;;;;7.85;4.83;;;;;;;1.36;79.64;96698.29;1715978;84;21179;-82
2021/03/05 11:22:03;;;;;;;7.85;4.95;;;;;;;1.40;79.99;96700.23;1733111;81;21566;-82
2021/03/05 11:24:31;;;;;;;7.78;4.12;;;;;;;1.48;79.87;96699.16;1727343;82;21299;-82
2021/03/05 11:27:02;;;;;;;8.43;5.67;;;;;;;1.56;79.66;96702.80;1729915;83;21099;-82
2021/03/05 11:29:30;;;;;;;7.03;4.75;;;;;;;1.63;79.73;96704.81;1734520;82;21471;-82
2021/03/05 11:32:00;;;;;;;7.20;4.53;;;;;;;1.69;79.29;96714.41;1727781;81;21492;-82
2021/03/05 11:34:28;;;;;;;7.20;4.20;;;;;;;1.78;79.05;96717.51;1760588;81;21187;-82
2021/03/05 11:36:55;;;;;;;4.60;3.02;;;;;;;1.92;78.75;96715.53;1755916;81;21121;-83
2021/03/05 11:39:22;;;;;;;7.40;3.92;;;;;;;2.06;78.18;96717.75;1747745;81;21122;-82
2021/03/05 11:41:50;;;;;;;5.20;3.67;;;;;;;2.18;78.00;96724.34;1707357;83;21716;-82
2021/03/05 11:44:18;;;;;;;9.95;4.85;;;;;;;2.35;77.87;96729.23;1719639;83;21181;-82
2021/03/05 11:46:46;;;;;;;7.37;4.08;;;;;;;2.54;77.72;96729.98;1714550;82;21171;-83
2021/03/05 11:49:14;;;;;;;6.22;3.75;;;;;;;2.58;77.11;96721.96;1717570;83;21192;-83
2021/03/05 11:51:43;;;;;;;5.40;3.85;;;;;;;2.65;76.85;96727.08;1706321;83;21516;-82
2021/03/05 11:54:11;;;;;;;6.12;4.40;;;;;;;2.78;76.70;96725.57;1709743;83;21548;-82